Time;durP1;ratioP1;P1;durP2;ratioP2;P2;SDS_P1;SDS_P2;PMS_P1;PMS_P2;Temp;Humidity;BMP_temperature;BMP_pressure;BME280_temperature;BME280_humidity;BME280_pressure;Samples;Min_cycle;Max_cycle;Signal;HPM_P1;HPM_P2
2022/01/09 00:02:02;;;;;;;311.00;75.63;;;;;;;7.29;100.00;99325.44;4992525;28;20030;-63
2022/01/09 00:04:28;;;;;;;336.90;68.82;;;;;;;7.51;100.00;99379.59;4974323;28;20606;-63
2022/01/09 00:06:54;;;;;;;147.23;48.97;;;;;;;7.32;100.00;99320.28;4992652;28;20105;-64
2022/01/09 00:09:19;;;;;;;180.88;46.42;;;;;;;7.67;100.00;99380.88;4992477;28;20022;-64
2022/01/09 00:11:44;;;;;;;211.57;41.97;;;;;;;7.44;100.00;99370.53;4991041;28;20104;-63
2022/01/09 00:14:10;;;;;;;146.98;34.65;;;;;;;7.23;100.00;99318.00;4992445;28;20392;-63
2022/01/09 00:16:35;;;;;;;76.32;27.65;;;;;;;7.66;100.00;99366.59;4990131;28;20034;-63
2022/01/09 00:19:01;;;;;;;76.43;26.65;;;;;;;7.64;100.00;99361.56;4977293;28;20027;-64
2022/01/09 00:21:26;;;;;;;126.57;26.30;;;;;;;6.96;100.00;99259.69;4972959;28;20035;-63
2022/01/09 00:23:52;;;;;;;110.25;25.85;;;;;;;7.49;100.00;99351.00;4972682;28;20070;-64
2022/01/09 00:26:17;;;;;;;105.68;26.38;;;;;;;7.38;100.00;99297.38;4955225;28;20027;-64
2022/01/09 00:28:43;;;;;;;60.63;23.10;;;;;;;7.55;100.00;99341.56;4984558;28;20556;-64
2022/01/09 00:31:08;;;;;;;60.75;23.13;;;;;;;7.66;100.00;99346.34;4992009;28;20030;-64
2022/01/09 00:33:34;;;;;;;48.80;21.65;;;;;;;7.64;100.00;99335.44;4991188;28;20053;-64
2022/01/09 00:35:59;;;;;;;61.85;21.92;;;;;;;7.13;100.00;99235.69;4990396;28;20030;-63
2022/01/09 00:38:25;;;;;;;56.40;21.45;;;;;;;7.36;100.00;99284.78;4991841;28;20421;-64
2022/01/09 00:40:50;;;;;;;50.70;21.23;;;;;;;7.61;100.00;99330.44;4991668;28;20516;-63
2022/01/09 00:43:16;;;;;;;65.32;22.52;;;;;;;7.33;100.00;99278.97;4990524;28;20084;-64
2022/01/09 00:45:42;;;;;;;53.83;21.50;;;;;;;7.66;100.00;99306.72;4991896;28;20034;-64
2022/01/09 00:48:08;;;;;;;72.90;22.27;;;;;;;7.35;100.00;99246.91;4959328;28;20035;-63
2022/01/09 00:50:36;;;;;;;64.60;21.65;;;;;;;7.56;100.00;99327.22;4972055;28;20034;-63
2022/01/09 00:53:03;;;;;;;87.40;24.25;;;;;;;7.64;100.00;99315.22;4972310;28;20027;-63
2022/01/09 00:55:29;;;;;;;44.92;20.60;;;;;;;7.45;100.00;99265.97;4970843;28;20031;-64
2022/01/09 00:57:54;;;;;;;45.15;19.48;;;;;;;7.24;100.00;99228.66;4954449;28;20031;-63
2022/01/09 01:02:55;;;;;;;46.85;21.05;;;;;;;7.78;100.00;99296.25;4228053;23;10000744;-65
2022/01/09 01:05:20;;;;;;;63.17;24.35;;;;;;;7.49;100.00;99245.63;4960524;28;20050;-66
2022/01/09 01:07:46;;;;;;;58.95;24.42;;;;;;;7.74;100.00;99306.50;4959913;28;20475;-65
2022/01/09 01:10:12;;;;;;;60.60;29.30;;;;;;;7.76;100.00;99287.06;4971916;28;20038;-65
2022/01/09 01:12:38;;;;;;;62.53;33.22;;;;;;;7.87;100.00;99297.69;4971963;28;20034;-65
2022/01/09 01:15:04;;;;;;;67.10;31.60;;;;;;;7.84;100.00;99318.03;4979478;28;20041;-65
2022/01/09 01:17:30;;;;;;;59.17;28.30;;;;;;;7.76;100.00;99319.94;4984499;28;20411;-65
2022/01/09 01:19:56;;;;;;;55.88;25.20;;;;;;;7.34;100.00;99263.75;4971958;28;20031;-65
2022/01/09 01:22:22;;;;;;;54.83;25.23;;;;;;;7.34;100.00;99240.16;4954328;28;20507;-66
2022/01/09 01:24:48;;;;;;;72.10;31.27;;;;;;;7.47;100.00;99256.66;4954464;28;20038;-65
2022/01/09 01:27:14;;;;;;;58.28;28.73;;;;;;;7.83;100.00;99319.72;4971841;28;20034;-65
2022/01/09 01:29:39;;;;;;;47.17;26.27;;;;;;;7.76;100.00;99314.88;4971959;28;20035;-65
2022/01/09 01:32:06;;;;;;;60.10;26.00;;;;;;;7.85;100.00;99320.50;4980142;28;20519;-65
2022/01/09 01:34:33;;;;;;;71.28;27.25;;;;;;;7.90;100.00;99338.91;4954543;28;20026;-65
2022/01/09 01:36:59;;;;;;;57.47;26.95;;;;;;;7.46;100.00;99263.44;4971591;28;20026;-65
2022/01/09 01:39:24;;;;;;;64.10;28.25;;;;;;;7.79;100.00;99299.59;4954230;28;20035;-66
2022/01/09 01:41:50;;;;;;;67.85;28.52;;;;;;;7.59;100.00;99261.38;4971655;28;20089;-65
2022/01/09 01:44:15;;;;;;;75.00;31.90;;;;;;;7.83;100.00;99312.13;4971318;28;20641;-66
2022/01/09 01:46:41;;;;;;;86.68;35.38;;;;;;;7.85;100.00;99292.69;4976097;28;20057;-65
2022/01/09 01:49:10;;;;;;;105.55;39.50;;;;;;;7.93;100.00;99307.63;4975588;28;20130;-65
2022/01/09 01:51:38;;;;;;;127.72;40.67;;;;;;;7.87;100.00;99320.47;4958056;28;20126;-65
2022/01/09 01:54:04;;;;;;;94.03;38.35;;;;;;;7.34;100.00;99225.84;4958012;28;20477;-66
2022/01/09 01:56:29;;;;;;;80.03;34.15;;;;;;;7.43;100.00;99224.75;4975437;28;20090;-65
2022/01/09 01:58:56;;;;;;;92.68;35.40;;;;;;;7.87;100.00;99288.41;4975038;28;20067;-66
2022/01/09 02:01:21;;;;;;;92.72;36.05;;;;;;;7.98;100.00;99299.94;4960160;28;20069;-65
2022/01/09 02:03:47;;;;;;;77.00;32.83;;;;;;;7.90;100.00;99312.81;4973720;28;20062;-65
2022/01/09 02:06:16;;;;;;;83.65;33.70;;;;;;;7.79;100.00;99297.06;4957762;28;20115;-65
2022/01/09 02:08:43;;;;;;;67.07;29.58;;;;;;;7.80;100.00;99289.44;4975449;28;20038;-65
2022/01/09 02:11:12;;;;;;;68.05;27.77;;;;;;;7.33;100.00;99206.47;4975069;28;20026;-65
2022/01/09 02:13:45;;;;;;;92.47;29.17;;;;;;;7.74;100.00;99274.44;4957502;28;20057;-65
2022/01/09 02:16:17;;;;;;;59.08;26.50;;;;;;;7.47;100.00;99216.19;4957794;28;20034;-65
2022/01/09 02:18:44;;;;;;;93.03;33.38;;;;;;;7.57;100.00;99248.78;4957556;28;20481;-66
2022/01/09 02:21:10;;;;;;;53.65;24.77;;;;;;;7.77;100.00;99284.47;4975040;28;20031;-65
2022/01/09 02:23:39;;;;;;;57.83;27.10;;;;;;;7.59;100.00;99251.25;4974857;28;20026;-65
2022/01/09 02:26:05;;;;;;;49.88;21.95;;;;;;;7.27;100.00;99198.25;4957329;28;20035;-65
2022/01/09 02:28:30;;;;;;;55.65;23.00;;;;;;;7.51;100.00;99236.31;4974994;28;20473;-66
2022/01/09 02:30:56;;;;;;;53.97;24.35;;;;;;;7.77;100.00;99266.75;4957475;28;20516;-65
2022/01/09 02:33:21;;;;;;;55.28;25.30;;;;;;;7.30;100.00;99177.94;4974819;28;20512;-66
2022/01/09 02:35:51;;;;;;;72.63;25.83;;;;;;;7.68;100.00;99245.97;4974866;28;20093;-66
2022/01/09 02:38:19;;;;;;;43.35;21.50;;;;;;;7.75;100.00;99262.63;4974400;28;20971;-65
2022/01/09 02:40:50;;;;;;;46.65;24.15;;;;;;;7.23;100.00;99178.97;4974436;28;20066;-66
2022/01/09 02:43:15;;;;;;;51.23;25.77;;;;;;;7.78;100.00;99265.88;4974736;28;20515;-66
2022/01/09 02:45:43;;;;;;;36.35;19.98;;;;;;;7.08;100.00;99139.78;4957266;28;20026;-66
2022/01/09 02:48:09;;;;;;;45.40;21.92;;;;;;;7.73;100.00;99275.31;4974429;28;20113;-68
2022/01/09 02:50:39;;;;;;;42.53;22.10;;;;;;;7.75;100.00;99255.03;4990364;28;20062;-66
2022/01/09 02:53:17;;;;;;;35.33;18.85;;;;;;;7.74;100.00;99253.38;4993658;28;20033;-66
2022/01/09 02:55:43;;;;;;;52.42;23.27;;;;;;;7.58;100.00;99224.34;4993126;28;20029;-66
2022/01/09 02:58:09;;;;;;;40.88;20.83;;;;;;;7.81;100.00;99262.44;4976268;28;20045;-66
2022/01/09 03:00:39;;;;;;;45.72;21.75;;;;;;;7.77;100.00;99260.88;4993786;28;20031;-66
2022/01/09 03:03:05;;;;;;;45.03;22.83;;;;;;;7.73;100.00;99234.00;4993711;28;20134;-66
2022/01/09 03:05:31;;;;;;;42.97;21.27;;;;;;;7.74;100.00;99231.41;4975858;28;20415;-67
2022/01/09 03:07:58;;;;;;;74.97;32.83;;;;;;;7.66;100.00;99235.06;4993686;28;20180;-65
2022/01/09 03:10:24;;;;;;;58.90;28.23;;;;;;;7.36;100.00;99183.66;4993481;28;20492;-66
2022/01/09 03:12:52;;;;;;;48.35;25.75;;;;;;;7.69;100.00;99234.97;4993333;28;20035;-66
2022/01/09 03:15:18;;;;;;;45.03;23.20;;;;;;;7.39;100.00;99167.59;4989024;28;20034;-65
2022/01/09 03:17:44;;;;;;;59.88;26.40;;;;;;;6.91;100.00;99077.09;4973687;28;20434;-65
2022/01/09 03:20:13;;;;;;;76.78;26.80;;;;;;;7.28;100.00;99136.69;4973657;28;20113;-65
2022/01/09 03:22:39;;;;;;;76.53;29.33;;;;;;;7.43;100.00;99156.47;4956547;28;20034;-65
2022/01/09 03:25:06;;;;;;;73.43;29.40;;;;;;;7.14;100.00;99143.84;4956135;28;20070;-66
2022/01/09 03:27:31;;;;;;;50.33;23.35;;;;;;;7.21;100.00;99132.72;4956352;28;20062;-66
2022/01/09 03:29:57;;;;;;;47.95;25.17;;;;;;;7.71;100.00;99213.81;4956386;28;20069;-65
2022/01/09 03:32:22;;;;;;;70.70;30.73;;;;;;;7.03;100.00;99131.53;4973467;28;20038;-66
2022/01/09 03:34:48;;;;;;;82.68;29.85;;;;;;;7.58;100.00;99236.97;4956043;28;20507;-65
2022/01/09 03:37:13;;;;;;;63.90;25.50;;;;;;;7.62;100.00;99210.72;4956218;28;20034;-65
2022/01/09 03:39:39;;;;;;;64.82;25.55;;;;;;;7.78;100.00;99222.88;4956003;28;20056;-65
2022/01/09 03:42:04;;;;;;;45.90;22.48;;;;;;;7.52;100.00;99179.00;4973367;28;20034;-65
2022/01/09 03:44:30;;;;;;;88.07;30.00;;;;;;;7.57;100.00;99203.25;4970056;28;20030;-65
2022/01/09 03:46:56;;;;;;;63.10;26.35;;;;;;;7.35;100.00;99153.38;4973194;28;20503;-65
2022/01/09 03:49:22;;;;;;;43.63;22.23;;;;;;;7.33;100.00;99160.97;4973187;28;20481;-65
2022/01/09 03:51:51;;;;;;;51.05;20.52;;;;;;;7.55;100.00;99212.59;4956107;28;20049;-65
2022/01/09 03:54:20;;;;;;;34.92;19.50;;;;;;;7.64;100.00;99214.03;4955748;28;20045;-65
2022/01/09 03:56:46;;;;;;;45.40;20.17;;;;;;;7.25;100.00;99139.34;4955979;28;20022;-65
2022/01/09 03:59:11;;;;;;;37.92;18.75;;;;;;;6.99;100.00;99118.13;4973292;28;20046;-65
2022/01/09 04:01:37;;;;;;;39.22;18.25;;;;;;;7.52;100.00;99200.06;4955367;28;20500;-66
2022/01/09 04:04:02;;;;;;;33.05;17.25;;;;;;;7.03;100.00;99102.00;4955493;28;20034;-66
2022/01/09 04:06:28;;;;;;;34.92;17.27;;;;;;;7.14;100.00;99128.69;4955524;28;20035;-66
2022/01/09 04:08:53;;;;;;;32.55;15.70;;;;;;;7.17;100.00;99139.53;4972181;28;20030;-65
2022/01/09 04:11:27;;;;;;;27.02;15.63;;;;;;;7.00;100.00;99132.44;4954125;28;20027;-66
2022/01/09 04:13:53;;;;;;;38.45;18.60;;;;;;;6.92;100.00;99121.69;4936675;29;20039;-66
2022/01/09 04:16:19;;;;;;;36.67;17.60;;;;;;;7.52;100.00;99211.88;4935410;29;20130;-66
2022/01/09 04:18:44;;;;;;;34.45;17.63;;;;;;;7.53;100.00;99213.50;4936239;29;20045;-66
2022/01/09 04:21:10;;;;;;;36.33;17.92;;;;;;;7.38;100.00;99196.25;4936404;29;20023;-66
2022/01/09 04:23:35;;;;;;;36.15;18.73;;;;;;;7.58;100.00;99215.06;4936315;29;20054;-66
2022/01/09 04:26:01;;;;;;;35.60;17.40;;;;;;;6.77;100.00;99089.25;4953411;29;20047;-66
2022/01/09 04:28:26;;;;;;;37.70;17.73;;;;;;;7.28;100.00;99140.06;4953283;29;20031;-65
2022/01/09 04:30:52;;;;;;;33.47;17.50;;;;;;;7.61;100.00;99214.13;4935853;29;20035;-66
2022/01/09 04:33:17;;;;;;;41.80;17.73;;;;;;;7.25;100.00;99126.69;4952980;29;20035;-65
2022/01/09 04:35:43;;;;;;;66.80;21.75;;;;;;;7.50;100.00;99173.16;4936126;29;20038;-66
2022/01/09 04:38:09;;;;;;;72.15;21.35;;;;;;;7.36;100.00;99147.44;4953089;29;20039;-66
2022/01/09 04:40:35;;;;;;;39.80;18.35;;;;;;;7.23;100.00;99109.03;4953274;29;20126;-66
2022/01/09 04:43:03;;;;;;;77.35;21.50;;;;;;;7.60;100.00;99166.97;4953435;29;20118;-66
2022/01/09 04:45:29;;;;;;;74.75;23.38;;;;;;;7.76;100.00;99213.69;4952790;29;20405;-65
2022/01/09 04:48:00;;;;;;;96.25;29.58;;;;;;;7.72;100.00;99215.50;4953182;29;20027;-65
2022/01/09 04:50:28;;;;;;;100.50;35.28;;;;;;;7.41;100.00;99138.00;4953149;29;20488;-65
2022/01/09 04:53:01;;;;;;;169.30;51.17;;;;;;;7.58;100.00;99178.81;4952910;29;20560;-64
2022/01/09 04:55:27;;;;;;;140.73;47.03;;;;;;;6.98;100.00;99065.13;4935682;29;20113;-65
2022/01/09 04:57:52;;;;;;;143.40;31.67;;;;;;;7.48;100.00;99162.25;4952649;29;20486;-65
2022/01/09 05:00:18;;;;;;;101.47;35.88;;;;;;;7.64;100.00;99183.69;4952606;29;20082;-65
2022/01/09 05:02:43;;;;;;;101.60;32.17;;;;;;;7.63;100.00;99182.84;4952907;29;20089;-64
2022/01/09 05:05:10;;;;;;;151.65;35.85;;;;;;;7.63;100.00;99187.91;4935478;29;20130;-64
2022/01/09 05:07:36;;;;;;;131.57;36.75;;;;;;;7.70;100.00;99186.88;4938836;28;20031;-65
2022/01/09 05:10:03;;;;;;;144.18;34.78;;;;;;;7.66;100.00;99182.78;4991512;28;20030;-66
2022/01/09 05:12:29;;;;;;;167.75;45.58;;;;;;;7.55;100.00;99178.88;4990990;28;20034;-66
2022/01/09 05:14:54;;;;;;;63.45;29.77;;;;;;;7.61;100.00;99182.06;4990988;28;20026;-65
2022/01/09 05:17:20;;;;;;;55.72;27.92;;;;;;;7.20;100.00;99126.81;4991026;28;20034;-66
2022/01/09 05:19:46;;;;;;;109.25;36.80;;;;;;;7.38;100.00;99151.56;4990971;28;20030;-66
2022/01/09 05:22:12;;;;;;;297.17;42.90;;;;;;;7.38;100.00;99176.03;4991236;28;20022;-66
2022/01/09 05:24:38;;;;;;;129.50;31.60;;;;;;;7.10;100.00;99125.41;4991157;28;20034;-65
2022/01/09 05:27:03;;;;;;;117.28;31.55;;;;;;;7.05;100.00;99103.69;4990939;28;20034;-65
2022/01/09 05:29:29;;;;;;;71.97;29.33;;;;;;;6.81;100.00;99035.28;4989598;28;20122;-64
2022/01/09 05:31:54;;;;;;;83.57;29.48;;;;;;;7.23;100.00;99108.22;4991331;28;20065;-65
2022/01/09 05:34:20;;;;;;;91.68;30.60;;;;;;;7.17;100.00;99095.75;4991401;28;20033;-66
2022/01/09 05:36:46;;;;;;;143.38;37.40;;;;;;;7.37;100.00;99133.94;4991048;28;20044;-66
2022/01/09 05:39:11;;;;;;;125.40;34.17;;;;;;;7.54;100.00;99164.59;4973610;28;20038;-65
2022/01/09 05:41:37;;;;;;;62.92;27.55;;;;;;;7.68;100.00;99172.63;4973555;28;20100;-65
2022/01/09 05:44:03;;;;;;;101.68;32.50;;;;;;;7.70;100.00;99170.88;4990965;28;20039;-66
2022/01/09 05:46:29;;;;;;;176.55;36.58;;;;;;;7.22;100.00;99137.72;4990976;28;20057;-65
2022/01/09 05:48:54;;;;;;;104.07;30.35;;;;;;;7.54;100.00;99157.00;4990893;28;20411;-65
2022/01/09 05:51:19;;;;;;;206.13;39.22;;;;;;;7.26;100.00;99100.53;4991001;28;20557;-65
2022/01/09 05:53:45;;;;;;;140.57;38.95;;;;;;;7.56;100.00;99168.75;4990938;28;20018;-66
2022/01/09 05:56:10;;;;;;;155.10;45.13;;;;;;;7.48;100.00;99147.91;4990984;28;20400;-64
2022/01/09 05:58:36;;;;;;;213.55;85.70;;;;;;;7.24;100.00;99102.28;4990383;28;20467;-65
2022/01/09 06:01:03;;;;;;;185.70;62.58;;;;;;;7.64;100.00;99193.81;4973505;28;20026;-64
2022/01/09 06:03:29;;;;;;;138.40;50.75;;;;;;;7.64;100.00;99173.56;4990851;28;20161;-65
2022/01/09 06:05:54;;;;;;;97.43;46.55;;;;;;;7.38;100.00;99117.88;4973259;28;20504;-64
2022/01/09 06:08:20;;;;;;;78.22;43.05;;;;;;;7.65;100.00;99175.22;4990685;28;20064;-64
2022/01/09 06:10:45;;;;;;;154.07;47.88;;;;;;;7.34;100.00;99117.13;4990769;28;20507;-64
2022/01/09 06:13:11;;;;;;;197.65;45.35;;;;;;;7.37;100.00;99139.00;4990476;28;20176;-65
2022/01/09 06:15:36;;;;;;;126.72;39.80;;;;;;;7.22;100.00;99124.25;4991198;28;20037;-65
2022/01/09 06:18:02;;;;;;;77.65;35.13;;;;;;;7.68;100.00;99173.44;4990642;28;20031;-66
2022/01/09 06:20:27;;;;;;;75.20;35.50;;;;;;;7.66;100.00;99177.72;4973114;28;20523;-62
2022/01/09 06:22:53;;;;;;;77.43;34.00;;;;;;;7.01;100.00;99060.00;4990672;28;20026;-63
2022/01/09 06:25:18;;;;;;;97.47;34.70;;;;;;;7.25;100.00;99093.84;4973147;28;20053;-66
2022/01/09 06:27:44;;;;;;;83.00;33.00;;;;;;;7.82;100.00;99185.69;4990295;28;20400;-63
2022/01/09 06:30:10;;;;;;;105.72;39.75;;;;;;;7.42;100.00;99139.66;4973128;28;20515;-65
2022/01/09 06:32:36;;;;;;;128.50;44.15;;;;;;;7.43;100.00;99134.56;4994189;28;20023;-64
2022/01/09 06:35:02;;;;;;;136.40;48.78;;;;;;;7.03;100.00;99074.22;4994171;28;20034;-64
2022/01/09 06:37:28;;;;;;;128.27;54.88;;;;;;;7.31;100.00;99097.00;4994162;28;20396;-65
2022/01/09 06:39:53;;;;;;;107.90;49.63;;;;;;;7.74;100.00;99190.16;4947630;28;20047;-65
2022/01/09 06:42:18;;;;;;;109.90;51.17;;;;;;;7.27;100.00;99108.06;4954805;28;20113;-65
2022/01/09 06:44:44;;;;;;;70.70;38.75;;;;;;;8.17;100.00;99185.44;4954509;28;20130;-64
2022/01/09 06:47:09;;;;;;;52.13;29.33;;;;;;;8.80;100.00;99131.03;4955040;28;20039;-64
2022/01/09 06:49:35;;;;;;;86.72;35.42;;;;;;;7.78;100.00;99172.28;4954998;28;20087;-66
2022/01/09 06:52:01;;;;;;;70.47;34.83;;;;;;;7.83;100.00;99190.69;4974022;28;20038;-65
2022/01/09 06:54:27;;;;;;;51.40;28.60;;;;;;;8.16;100.00;99138.19;4974154;28;20034;-65
2022/01/09 06:56:53;;;;;;;48.33;26.88;;;;;;;8.99;100.00;99165.84;4974096;28;20477;-65
2022/01/09 06:59:18;;;;;;;67.45;35.35;;;;;;;8.08;100.00;99060.88;4973985;28;20105;-66
2022/01/09 07:01:44;;;;;;;60.88;32.42;;;;;;;8.56;100.00;99198.56;4974159;28;20030;-65
2022/01/09 07:04:09;;;;;;;136.98;53.75;;;;;;;7.61;100.00;99118.00;4956696;28;20027;-65
2022/01/09 07:06:35;;;;;;;149.82;41.13;;;;;;;7.51;100.00;99159.63;4956464;28;20030;-65
2022/01/09 07:09:01;;;;;;;209.63;45.97;;;;;;;7.42;100.00;99132.91;4972548;28;20023;-65
2022/01/09 07:11:26;;;;;;;72.95;31.10;;;;;;;7.72;100.00;99187.66;4973711;28;20110;-65
2022/01/09 07:13:51;;;;;;;84.85;33.90;;;;;;;7.38;100.00;99145.69;4973926;28;20109;-64
2022/01/09 07:16:17;;;;;;;114.93;32.38;;;;;;;7.23;100.00;99130.97;4974367;28;20039;-65
2022/01/09 07:18:42;;;;;;;122.95;28.83;;;;;;;7.61;100.00;99196.41;4972422;28;20481;-65
2022/01/09 07:21:08;;;;;;;173.18;38.97;;;;;;;7.25;100.00;99137.59;4972198;28;20031;-65
2022/01/09 07:23:33;;;;;;;173.23;42.33;;;;;;;7.57;100.00;99194.84;4974017;28;20030;-64
2022/01/09 07:25:59;;;;;;;300.55;48.33;;;;;;;7.22;100.00;99142.75;4974112;28;20042;-64
2022/01/09 07:28:24;;;;;;;287.08;33.95;;;;;;;7.29;100.00;99143.44;4972023;28;20034;-65
2022/01/09 07:30:49;;;;;;;96.80;24.48;;;;;;;8.27;100.00;99186.84;4973876;28;20035;-66
2022/01/09 07:33:15;;;;;;;97.38;26.15;;;;;;;7.92;100.00;99187.06;4974134;28;20033;-66
2022/01/09 07:35:40;;;;;;;276.25;33.70;;;;;;;7.71;100.00;99177.56;4973641;28;20413;-65
2022/01/09 07:38:06;;;;;;;261.83;45.38;;;;;;;7.50;100.00;99136.06;4973351;28;20115;-63
2022/01/09 07:40:32;;;;;;;190.90;30.17;;;;;;;7.62;100.00;99173.63;4973279;28;20122;-63
2022/01/09 07:42:58;;;;;;;217.02;27.02;;;;;;;7.43;100.00;99164.06;4972979;28;20027;-62
2022/01/09 07:45:26;;;;;;;218.55;28.63;;;;;;;7.48;100.00;99179.94;4973564;28;20592;-62
2022/01/09 07:47:52;;;;;;;278.77;36.55;;;;;;;7.13;100.00;99100.03;4973223;28;20093;-63
2022/01/09 07:50:18;;;;;;;280.63;43.05;;;;;;;7.54;100.00;99160.38;4973368;28;20034;-63
2022/01/09 07:52:44;;;;;;;190.52;41.35;;;;;;;7.44;100.00;99150.56;4973316;28;20030;-62
2022/01/09 07:55:10;;;;;;;303.95;49.50;;;;;;;7.58;100.00;99136.66;4972694;28;20035;-63
2022/01/09 07:57:37;;;;;;;167.20;32.85;;;;;;;7.75;100.00;99128.53;4970912;28;20145;-62
2022/01/09 08:00:08;;;;;;;188.02;28.85;;;;;;;7.38;100.00;99090.91;4972880;28;20519;-63
2022/01/09 08:02:35;;;;;;;87.75;23.92;;;;;;;7.32;100.00;99075.09;4972972;28;20082;-63
2022/01/09 08:05:01;;;;;;;157.85;29.35;;;;;;;7.31;100.00;99068.38;4972828;28;20082;-63
2022/01/09 08:07:26;;;;;;;146.02;27.48;;;;;;;7.48;100.00;99096.50;4972637;28;20417;-62
2022/01/09 08:09:52;;;;;;;38.65;18.13;;;;;;;7.76;100.00;99085.50;4972937;28;20031;-63
2022/01/09 08:12:17;;;;;;;39.63;19.27;;;;;;;7.78;100.00;99052.59;4972878;28;20041;-62
2022/01/09 08:14:44;;;;;;;43.83;19.45;;;;;;;7.96;100.00;99052.00;4972916;28;20118;-63
2022/01/09 08:17:10;;;;;;;43.33;22.73;;;;;;;7.42;100.00;99056.25;4972682;28;20061;-63
2022/01/09 08:19:35;;;;;;;54.55;24.83;;;;;;;7.81;100.00;99135.94;4972391;28;20036;-63
2022/01/09 08:22:05;;;;;;;49.90;24.52;;;;;;;7.15;100.00;99009.84;4972834;28;20045;-63
2022/01/09 08:24:32;;;;;;;50.20;22.13;;;;;;;7.58;100.00;99093.66;4972827;28;20082;-65
2022/01/09 08:26:57;;;;;;;56.90;25.80;;;;;;;7.96;100.00;99139.72;4972510;28;20034;-64
2022/01/09 08:29:23;;;;;;;76.20;29.35;;;;;;;7.50;100.00;99036.59;4955136;28;20034;-65
2022/01/09 08:31:48;;;;;;;113.70;43.67;;;;;;;7.47;100.00;99052.69;4947618;29;20039;-64
2022/01/09 08:34:14;;;;;;;80.75;40.63;;;;;;;7.59;100.00;99061.59;4953016;28;20082;-64
2022/01/09 08:36:39;;;;;;;58.13;28.65;;;;;;;7.92;100.00;99120.44;4953171;28;20481;-64
2022/01/09 08:39:05;;;;;;;43.28;24.17;;;;;;;7.68;100.00;99110.22;4951618;29;20377;-63
2022/01/09 08:41:33;;;;;;;64.05;30.80;;;;;;;7.80;100.00;99141.91;4952931;28;20138;-62
2022/01/09 08:44:04;;;;;;;28.42;17.63;;;;;;;8.37;100.00;99102.13;4952993;28;20039;-63
2022/01/09 08:46:30;;;;;;;49.33;24.70;;;;;;;8.25;100.00;99127.84;4952931;28;20564;-63
2022/01/09 08:48:56;;;;;;;45.88;24.05;;;;;;;7.97;100.00;99147.25;4952818;29;20481;-63
2022/01/09 08:51:22;;;;;;;48.10;20.90;;;;;;;7.95;100.00;99138.88;4952958;28;20038;-63
2022/01/09 08:53:50;;;;;;;39.40;21.88;;;;;;;7.87;100.00;99128.19;4950850;28;20102;-63
2022/01/09 08:56:20;;;;;;;40.47;23.70;;;;;;;6.88;100.00;98998.03;4951155;28;20023;-64
2022/01/09 08:58:47;;;;;;;47.50;25.33;;;;;;;7.94;100.00;99137.25;4952765;28;20126;-64
2022/01/09 09:01:12;;;;;;;84.10;38.50;;;;;;;7.44;100.00;99052.81;4935314;29;20024;-63
2022/01/09 09:03:41;;;;;;;48.15;23.08;;;;;;;7.40;100.00;99042.81;4952432;28;20058;-64
2022/01/09 09:06:14;;;;;;;49.20;24.50;;;;;;;7.66;100.00;99052.97;4951193;28;20085;-65
2022/01/09 09:08:41;;;;;;;71.55;36.80;;;;;;;7.97;100.00;99099.19;4935278;29;20031;-64
2022/01/09 09:11:08;;;;;;;46.80;25.77;;;;;;;8.01;100.00;99094.84;4952755;28;20057;-63
2022/01/09 09:13:35;;;;;;;53.40;29.63;;;;;;;7.54;100.00;99033.94;4952542;28;20027;-63
2022/01/09 09:16:01;;;;;;;51.08;29.35;;;;;;;8.03;100.00;99114.16;4952444;28;20505;-64
2022/01/09 09:18:27;;;;;;;49.08;27.50;;;;;;;7.84;100.00;99060.78;4952494;28;20118;-66
2022/01/09 09:20:53;;;;;;;47.05;25.23;;;;;;;8.04;100.00;99109.94;4952524;28;20117;-66
2022/01/09 09:23:19;;;;;;;50.53;29.98;;;;;;;8.03;100.00;99090.56;4952631;28;20139;-67
2022/01/09 09:25:45;;;;;;;49.75;27.90;;;;;;;8.08;100.00;99088.72;4952652;28;20031;-65
2022/01/09 09:28:11;;;;;;;48.35;28.38;;;;;;;8.06;100.00;99095.53;4952225;28;20030;-67
2022/01/09 09:30:36;;;;;;;68.47;41.72;;;;;;;7.70;100.00;99011.53;4950838;28;20110;-66
2022/01/09 09:33:03;;;;;;;36.47;17.20;;;;;;;7.86;100.00;99098.72;4952696;28;20489;-64
2022/01/09 09:35:29;;;;;;;46.22;23.95;;;;;;;7.70;100.00;99030.06;4609794;28;9999925;-66
2022/01/09 09:37:55;;;;;;;54.25;32.47;;;;;;;8.21;100.00;99110.22;4966283;28;20029;-66
2022/01/09 09:40:20;;;;;;;46.00;25.88;;;;;;;7.46;100.00;98984.47;4968038;28;20065;-65
2022/01/09 09:42:46;;;;;;;57.38;32.72;;;;;;;7.70;100.00;99014.88;4950685;28;20030;-67
2022/01/09 09:45:12;;;;;;;40.22;20.95;;;;;;;8.97;100.00;99032.44;4950646;28;20027;-67
2022/01/09 09:47:39;;;;;;;43.15;23.65;;;;;;;8.32;100.00;99080.38;4950044;28;20027;-67
2022/01/09 09:50:13;;;;;;;41.65;26.63;;;;;;;8.20;100.00;99075.69;4950392;28;20518;-67
2022/01/09 09:52:41;;;;;;;54.00;30.40;;;;;;;7.85;100.00;99011.00;4950249;28;20031;-67
2022/01/09 09:55:06;;;;;;;53.42;28.63;;;;;;;8.23;100.00;99060.38;4950599;28;20489;-67
2022/01/09 09:57:32;;;;;;;56.80;35.72;;;;;;;7.89;100.00;98988.09;4967401;28;20086;-66
2022/01/09 10:00:05;;;;;;;39.05;23.65;;;;;;;8.39;100.00;99084.34;4967197;28;20065;-66
2022/01/09 10:02:52;;;;;;;49.88;24.73;;;;;;;8.34;100.00;99076.06;4967688;28;20046;-67
2022/01/09 10:05:23;;;;;;;66.45;38.63;;;;;;;7.97;100.00;98995.44;4968441;28;20126;-67
2022/01/09 10:07:51;;;;;;;60.30;36.72;;;;;;;8.22;100.00;99016.50;4971787;28;20034;-66
2022/01/09 10:10:19;;;;;;;33.13;21.08;;;;;;;7.76;100.00;98921.06;4971561;28;20069;-68
2022/01/09 10:12:46;;;;;;;36.03;20.10;;;;;;;8.14;100.00;99000.75;4953818;28;20038;-68
2022/01/09 10:15:17;;;;;;;43.00;27.48;;;;;;;8.42;100.00;99071.56;4971566;28;20496;-67
2022/01/09 10:17:45;;;;;;;37.58;21.23;;;;;;;8.31;100.00;99051.69;4971576;28;20039;-66
2022/01/09 10:20:14;;;;;;;37.85;22.13;;;;;;;7.63;100.00;98922.38;4954388;28;20053;-66
2022/01/09 10:22:40;;;;;;;31.23;19.80;;;;;;;8.55;100.00;99075.34;4971092;28;20078;-67
2022/01/09 10:25:32;;;;;;;58.80;39.95;;;;;;;8.45;100.00;99051.22;4971073;28;20034;-66
2022/01/09 10:28:09;;;;;;;38.58;22.45;;;;;;;8.66;100.00;99051.28;4971405;28;20042;-68
2022/01/09 10:30:38;;;;;;;34.20;19.77;;;;;;;8.48;100.00;99056.97;4971386;28;20133;-68
2022/01/09 10:33:10;;;;;;;29.45;17.17;;;;;;;8.13;100.00;98975.50;4971200;28;20421;-68
2022/01/09 10:35:37;;;;;;;38.65;22.50;;;;;;;8.61;100.00;99045.56;4950015;28;20761;-66
2022/01/09 10:38:04;;;;;;;43.38;26.60;;;;;;;8.55;100.00;99037.34;4951303;29;20083;-66
2022/01/09 10:40:33;;;;;;;51.60;32.38;;;;;;;8.15;100.00;98954.31;4952145;29;20035;-67
2022/01/09 10:43:04;;;;;;;44.58;24.20;;;;;;;8.52;100.00;99055.16;4952098;29;20032;-67
2022/01/09 10:45:31;;;;;;;54.63;29.52;;;;;;;8.04;100.00;98965.69;4934431;29;20046;-69
2022/01/09 10:48:09;;;;;;;78.45;42.97;;;;;;;8.58;100.00;99025.41;4951244;29;20035;-69
2022/01/09 10:50:37;;;;;;;95.05;46.45;;;;;;;8.33;100.00;98966.38;4951342;29;20093;-69
2022/01/09 10:53:12;;;;;;;137.27;63.15;;;;;;;8.81;100.00;99036.41;4934380;29;20034;-68
2022/01/09 10:55:37;;;;;;;84.25;44.88;;;;;;;8.70;100.00;99008.94;4951795;29;20113;-69
2022/01/09 10:58:19;;;;;;;85.00;49.80;;;;;;;8.57;100.00;99028.81;4934298;29;20457;-69
2022/01/09 11:00:45;;;;;;;64.72;37.63;;;;;;;8.38;100.00;98997.41;4936639;29;20038;-70
2022/01/09 11:03:10;;;;;;;73.47;51.30;;;;;;;8.01;100.00;98932.88;4954649;29;20457;-69
2022/01/09 11:05:37;;;;;;;161.35;74.57;;;;;;;8.63;100.00;99015.09;4955021;29;20027;-68
2022/01/09 11:08:03;;;;;;;83.53;48.03;;;;;;;8.37;100.00;98970.44;4954932;29;20485;-71
2022/01/09 11:10:30;;;;;;;85.10;52.65;;;;;;;7.91;100.00;98899.50;4937787;29;20499;-69
2022/01/09 11:12:59;;;;;;;68.35;49.75;;;;;;;7.88;100.00;98881.91;4954845;29;20049;-69
2022/01/09 11:15:29;;;;;;;70.70;46.03;;;;;;;8.73;100.00;98999.50;4954345;29;20027;-70